createdAt,value
2023-02-18T00:01:24.298Z,102626.25
2023-02-18T00:03:52.600Z,102627.81
2023-02-18T00:06:26.068Z,102623.25
2023-02-18T00:08:54.399Z,102622.50
2023-02-18T00:11:22.520Z,102618.91
2023-02-18T00:13:55.871Z,102617.28
2023-02-18T00:16:25.743Z,102619.09
2023-02-18T00:18:58.017Z,102619.94
2023-02-18T00:21:25.976Z,102611.16
2023-02-18T00:23:53.732Z,102612.53
2023-02-18T00:26:21.673Z,102616.91
2023-02-18T00:28:51.476Z,102622.09
2023-02-18T00:31:24.928Z,102609.06
2023-02-18T00:33:52.895Z,102614.47
2023-02-18T00:36:22.642Z,102612.66
2023-02-18T00:38:55.444Z,102612.38
2023-02-18T00:41:25.453Z,102609.00
2023-02-18T00:43:53.431Z,102604.44
2023-02-18T00:46:22.555Z,102603.78
2023-02-18T00:48:50.109Z,102598.69
2023-02-18T00:51:17.664Z,102604.47
2023-02-18T00:53:45.277Z,102602.56
2023-02-18T00:56:13.427Z,102599.06
2023-02-18T00:58:43.362Z,102598.16
2023-02-18T01:01:11.750Z,102599.94
2023-02-18T01:03:42.648Z,102595.59
2023-02-18T01:06:11.515Z,102596.72
2023-02-18T01:08:40.640Z,102595.59
2023-02-18T01:11:10.247Z,102598.25
2023-02-18T01:13:38.165Z,102591.53
2023-02-18T01:16:08.404Z,102591.53
2023-02-18T01:18:37.372Z,102595.78
2023-02-18T01:21:09.048Z,102599.91
2023-02-18T01:23:38.748Z,102598.25
2023-02-18T01:26:07.217Z,102599.16
2023-02-18T01:28:35.646Z,102596.53
2023-02-18T01:31:09.181Z,102591.34
2023-02-18T01:33:37.485Z,102593.72
2023-02-18T01:36:05.725Z,102600.44
2023-02-18T01:38:33.237Z,102595.03
2023-02-18T01:41:01.539Z,102594.94
2023-02-18T01:43:30.052Z,102598.56
2023-02-18T01:46:16.115Z,102595.28
2023-02-18T01:48:51.568Z,102593.38
2023-02-18T01:51:39.306Z,102594.53
2023-02-18T01:54:13.884Z,102588.53
2023-02-18T01:56:47.746Z,102603.63
2023-02-18T01:59:21.683Z,102599.94
2023-02-18T02:01:49.599Z,102588.41
2023-02-18T02:04:17.039Z,102579.72
2023-02-18T02:06:44.634Z,102583.97
2023-02-18T02:09:15.593Z,102586.41
2023-02-18T02:12:14.194Z,102589.56
2023-02-18T02:15:08.937Z,102591.78
2023-02-18T02:17:58.262Z,102582.19
2023-02-18T02:20:34.652Z,102573.50
2023-02-18T02:23:54.952Z,102577.66
2023-02-18T02:26:31.361Z,102574.59
2023-02-18T02:29:14.199Z,102570.34
2023-02-18T02:31:47.849Z,102568.53
2023-02-18T02:34:27.392Z,102568.69
2023-02-18T02:37:31.769Z,102571.53
2023-02-18T02:40:16.170Z,102565.13
2023-02-18T02:42:43.664Z,102561.47
2023-02-18T02:45:16.594Z,102559.81
2023-02-18T02:48:28.996Z,102560.69
2023-02-18T02:51:09.604Z,102562.28
2023-02-18T02:53:40.076Z,102548.88
2023-02-18T02:56:24.050Z,102552.38
2023-02-18T02:59:06.513Z,102547.34
2023-02-18T03:02:12.519Z,102546.41
2023-02-18T03:04:43.517Z,102547.28
2023-02-18T03:07:47.949Z,102538.56
2023-02-18T03:10:34.260Z,102534.91
2023-02-18T03:13:14.657Z,102529.47
2023-02-18T03:15:57.147Z,102528.84
2023-02-18T03:18:40.256Z,102536.06
2023-02-18T03:21:23.700Z,102531.59
2023-02-18T03:23:55.155Z,102530.47
2023-02-18T03:26:25.840Z,102530.28
2023-02-18T03:28:56.739Z,102527.75
2023-02-18T03:31:28.884Z,102525.97
2023-02-18T03:34:02.424Z,102528.22
2023-02-18T03:36:31.531Z,102522.75
2023-02-18T03:39:13.028Z,102530.75
2023-02-18T03:41:40.727Z,102523.78
2023-02-18T03:44:10.519Z,102522.94
2023-02-18T03:46:41.038Z,102514.81
2023-02-18T03:49:08.978Z,102507.94
2023-02-18T03:51:36.471Z,102514.19
2023-02-18T03:54:04.216Z,102515.78
2023-02-18T03:56:31.832Z,102510.50
2023-02-18T03:58:59.739Z,102517.50
2023-02-18T04:01:27.377Z,102507.00
2023-02-18T04:03:55.597Z,102504.28
2023-02-18T04:06:24.372Z,102515.72
2023-02-18T04:08:51.930Z,102508.88
2023-02-18T04:11:19.495Z,102519.38
2023-02-18T04:13:47.209Z,102510.69
2023-02-18T04:16:14.835Z,102513.31
2023-02-18T04:18:42.308Z,102513.41
2023-02-18T04:21:09.846Z,102514.56
2023-02-18T04:23:38.076Z,102512.09
2023-02-18T04:26:05.584Z,102519.06
2023-02-18T04:28:33.155Z,102519.00
2023-02-18T04:31:00.658Z,102517.75
2023-02-18T04:33:28.214Z,102516.06
2023-02-18T04:35:55.701Z,102512.63
2023-02-18T04:38:23.188Z,102509.16
2023-02-18T04:40:50.493Z,102518.06
2023-02-18T04:43:17.846Z,102510.16
2023-02-18T04:45:45.130Z,102515.94
2023-02-18T04:48:12.565Z,102511.59
2023-02-18T04:50:40.386Z,102513.22
2023-02-18T04:53:08.025Z,102514.91
2023-02-18T04:55:35.608Z,102512.47
2023-02-18T04:58:03.198Z,102510.47
2023-02-18T05:00:30.597Z,102513.91
2023-02-18T05:02:58.288Z,102511.28
2023-02-18T05:05:25.759Z,102512.38
2023-02-18T05:07:53.244Z,102519.09
2023-02-18T05:10:21.001Z,102513.91
2023-02-18T05:12:48.454Z,102513.97
2023-02-18T05:15:15.792Z,102513.91
2023-02-18T05:17:43.101Z,102514.53
2023-02-18T05:20:11.307Z,102509.38
2023-02-18T05:22:39.244Z,102510.34
2023-02-18T05:25:07.621Z,102518.72
2023-02-18T05:27:35.150Z,102516.34
2023-02-18T05:30:02.634Z,102517.13
2023-02-18T05:32:30.272Z,102511.00
2023-02-18T05:34:57.713Z,102510.03
2023-02-18T05:37:25.240Z,102511.84
2023-02-18T05:39:52.676Z,102509.28
2023-02-18T05:42:20.832Z,102508.53
2023-02-18T05:44:48.170Z,102513.06
2023-02-18T05:47:15.561Z,102511.41
2023-02-18T05:49:43.420Z,102522.56
2023-02-18T05:52:12.733Z,102510.34
2023-02-18T05:54:40.510Z,102513.78
2023-02-18T05:57:08.050Z,102517.53
2023-02-18T05:59:35.449Z,102518.03
2023-02-18T06:02:02.939Z,102513.91
2023-02-18T06:04:30.347Z,102517.47
2023-02-18T06:06:58.088Z,102513.28
2023-02-18T06:09:25.680Z,102512.25
2023-02-18T06:11:53.155Z,102507.13
2023-02-18T06:14:20.381Z,102509.69
2023-02-18T06:16:47.900Z,102504.22
2023-02-18T06:19:15.321Z,102509.28
2023-02-18T06:21:42.866Z,102506.28
2023-02-18T06:24:10.434Z,102502.44
2023-02-18T06:26:37.973Z,102503.31
2023-02-18T06:29:05.413Z,102505.09
2023-02-18T06:31:33.042Z,102511.06
2023-02-18T06:34:00.688Z,102511.91
2023-02-18T06:36:28.272Z,102508.50
2023-02-18T06:38:57.651Z,102509.41
2023-02-18T06:41:25.616Z,102506.19
2023-02-18T06:43:53.052Z,102501.06
2023-02-18T06:46:20.693Z,102509.69
2023-02-18T06:48:48.310Z,102505.78
2023-02-18T06:51:16.668Z,102504.00
2023-02-18T06:53:44.228Z,102506.53
2023-02-18T06:56:12.293Z,102506.38
2023-02-18T06:58:42.439Z,102496.06
2023-02-18T07:01:10.617Z,102495.19
2023-02-18T07:03:38.260Z,102489.84
2023-02-18T07:06:06.014Z,102487.28
2023-02-18T07:08:36.264Z,102495.13
2023-02-18T07:11:04.303Z,102496.97
2023-02-18T07:13:31.671Z,102495.38
2023-02-18T07:15:59.545Z,102497.16
2023-02-18T07:18:26.998Z,102498.84
2023-02-18T07:20:54.591Z,102502.19
2023-02-18T07:23:22.384Z,102501.41
2023-02-18T07:25:49.928Z,102512.84
2023-02-18T07:28:17.387Z,102512.78
2023-02-18T07:30:45.040Z,102518.81
2023-02-18T07:33:14.331Z,102521.06
2023-02-18T07:35:41.802Z,102525.53
2023-02-18T07:38:09.044Z,102530.53
2023-02-18T07:40:36.355Z,102534.59
2023-02-18T07:43:03.859Z,102537.31
2023-02-18T07:45:31.286Z,102536.44
2023-02-18T07:47:58.737Z,102539.78
2023-02-18T07:50:26.416Z,102544.13
2023-02-18T07:52:53.845Z,102546.84
2023-02-18T07:55:21.376Z,102547.28
2023-02-18T07:57:57.700Z,102547.13
2023-02-18T08:00:25.369Z,102553.41
2023-02-18T08:02:52.866Z,102550.69
2023-02-18T08:05:20.521Z,102561.28
2023-02-18T08:07:47.958Z,102555.38
2023-02-18T08:10:15.465Z,102560.56
2023-02-18T08:12:42.997Z,102567.25
2023-02-18T08:15:10.729Z,102566.25
2023-02-18T08:17:38.143Z,102567.16
2023-02-18T08:20:06.753Z,102568.09
2023-02-18T08:22:34.357Z,102572.59
2023-02-18T08:25:02.166Z,102566.00
2023-02-18T08:27:29.665Z,102573.13
2023-02-18T08:29:57.171Z,102570.72
2023-02-18T08:32:28.560Z,102570.97
2023-02-18T08:34:56.661Z,102572.78
2023-02-18T08:37:24.546Z,102573.72
2023-02-18T08:39:52.392Z,102578.25
2023-02-18T08:42:20.115Z,102579.81
2023-02-18T08:44:47.640Z,102574.00
2023-02-18T08:48:18.755Z,102573.81
2023-02-18T08:50:02.619Z,102575.56
2023-02-18T08:52:30.235Z,102573.03
2023-02-18T08:54:58.093Z,102573.50
2023-02-18T08:57:25.565Z,102576.63
2023-02-18T08:59:53.031Z,102581.31
2023-02-18T09:02:20.445Z,102582.47
2023-02-18T09:04:48.118Z,102574.78
2023-02-18T09:07:15.659Z,102573.31
2023-02-18T09:09:43.104Z,102574.47
2023-02-18T09:12:10.449Z,102572.88
2023-02-18T09:14:38.058Z,102576.25
2023-02-18T09:17:05.691Z,102578.28
2023-02-18T09:19:33.165Z,102577.69
2023-02-18T09:22:00.895Z,102578.75
2023-02-18T09:24:28.688Z,102582.09
2023-02-18T09:26:56.184Z,102576.81
2023-02-18T09:29:23.692Z,102579.31
2023-02-18T09:31:51.239Z,102583.44
2023-02-18T09:34:18.797Z,102576.50
2023-02-18T09:36:46.078Z,102578.75
2023-02-18T09:39:14.106Z,102578.03
2023-02-18T09:41:48.460Z,102571.25
2023-02-18T09:44:31.183Z,102572.84
2023-02-18T09:47:12.885Z,102574.63
2023-02-18T09:49:54.421Z,102573.69
2023-02-18T09:52:28.185Z,102578.03
2023-02-18T09:54:56.505Z,102570.44
2023-02-18T09:57:38.269Z,102566.88
2023-02-18T10:00:14.164Z,102567.66
2023-02-18T10:03:17.926Z,102563.34
2023-02-18T10:06:00.689Z,102568.53
2023-02-18T10:08:31.484Z,102567.97
2023-02-18T10:10:59.066Z,102575.88
2023-02-18T10:13:30.048Z,102575.06
2023-02-18T10:15:57.628Z,102570.63
2023-02-18T10:18:41.221Z,102579.50
2023-02-18T10:21:15.842Z,102577.81
2023-02-18T10:23:54.918Z,102582.81
2023-02-18T10:26:22.564Z,102580.28
2023-02-18T10:28:52.576Z,102580.47
2023-02-18T10:31:33.703Z,102588.34
2023-02-18T10:34:16.167Z,102591.53
2023-02-18T10:36:54.262Z,102589.53
2023-02-18T10:39:32.339Z,102589.50
2023-02-18T10:55:41.998Z,102581.00
2023-02-18T10:58:30.210Z,102574.16
2023-02-18T11:00:59.134Z,102573.59
2023-02-18T11:03:45.393Z,102565.91
2023-02-18T11:06:26.220Z,102564.34
2023-02-18T11:08:56.906Z,102569.63
2023-02-18T11:11:29.626Z,102566.88
2023-02-18T11:14:02.378Z,102573.00
2023-02-18T11:16:44.703Z,102564.56
2023-02-18T11:19:58.113Z,102568.75
2023-02-18T11:22:37.964Z,102568.22
2023-02-18T11:25:22.680Z,102563.09
2023-02-18T11:27:55.692Z,102566.88
2023-02-18T11:30:27.947Z,102573.22
2023-02-18T11:33:02.977Z,102575.78
2023-02-18T11:35:32.390Z,102576.72
2023-02-18T11:38:02.504Z,102574.88
2023-02-18T11:40:36.122Z,102571.34
2023-02-18T11:43:14.525Z,102573.06
2023-02-18T11:45:42.613Z,102572.00
2023-02-18T11:48:19.532Z,102571.28
2023-02-18T11:50:52.333Z,102566.88
2023-02-18T11:53:29.092Z,102562.66
2023-02-18T11:56:02.283Z,102565.44
2023-02-18T11:58:39.934Z,102572.53
2023-02-18T12:01:20.801Z,102565.78
2023-02-18T12:04:19.828Z,102560.59
2023-02-18T12:07:12.283Z,102544.03
2023-02-18T12:09:46.623Z,102552.75
2023-02-18T12:12:27.587Z,102550.81
2023-02-18T12:14:56.425Z,102546.34
2023-02-18T12:17:45.925Z,102551.50
2023-02-18T12:20:41.227Z,102544.47
2023-02-18T12:23:36.862Z,102540.09
2023-02-18T12:26:23.148Z,102535.78
2023-02-18T12:29:15.259Z,102532.25
2023-02-18T12:32:19.809Z,102532.13
2023-02-18T12:35:04.634Z,102534.56
2023-02-18T12:38:02.559Z,102532.78
2023-02-18T12:40:45.277Z,102532.72
2023-02-18T12:43:54.647Z,102520.59
2023-02-18T12:46:50.859Z,102515.47
2023-02-18T12:49:56.894Z,102505.75
2023-02-18T12:52:33.425Z,102508.47
2023-02-18T12:55:29.280Z,102509.03
2023-02-18T12:58:06.026Z,102509.81
2023-02-18T13:00:48.869Z,102501.75
2023-02-18T13:03:19.360Z,102495.53
2023-02-18T13:06:13.650Z,102490.53
2023-02-18T13:08:41.056Z,102482.72
2023-02-18T13:11:18.457Z,102480.13
2023-02-18T13:13:54.946Z,102480.50
2023-02-18T13:16:24.538Z,102479.56
2023-02-18T13:19:00.938Z,102477.09
2023-02-18T13:21:29.605Z,102477.19
2023-02-18T13:24:02.632Z,102478.75
2023-02-18T13:26:32.866Z,102469.91
2023-02-18T13:29:22.724Z,102469.13
2023-02-18T13:32:10.951Z,102466.75
2023-02-18T13:34:48.724Z,102470.34
2023-02-18T13:37:33.384Z,102464.19
2023-02-18T13:40:02.243Z,102458.06
2023-02-18T13:42:36.350Z,102458.06
2023-02-18T13:45:07.427Z,102452.75
2023-02-18T13:47:45.174Z,102445.94
2023-02-18T13:50:30.991Z,102447.78
2023-02-18T13:53:20.219Z,102445.88
2023-02-18T13:55:59.057Z,102450.19
2023-02-18T13:58:44.261Z,102438.84
2023-02-18T14:01:20.004Z,102436.88
2023-02-18T14:03:47.590Z,102428.00
2023-02-18T14:06:15.095Z,102427.88
2023-02-18T14:08:43.750Z,102427.97
2023-02-18T14:11:14.486Z,102429.72
2023-02-18T14:13:54.356Z,102427.84
2023-02-18T14:16:22.217Z,102420.03
2023-02-18T14:19:01.676Z,102410.41
2023-02-18T14:21:37.265Z,102417.50
2023-02-18T14:24:07.774Z,102411.22
2023-02-18T14:26:44.448Z,102410.31
2023-02-18T14:29:14.279Z,102407.75
2023-02-18T14:32:04.964Z,102409.41
2023-02-18T14:34:41.833Z,102402.16
2023-02-18T14:37:30.876Z,102404.78
2023-02-18T14:40:19.687Z,102402.19
2023-02-18T14:43:02.292Z,102395.97
2023-02-18T14:45:49.925Z,102390.63
2023-02-18T14:48:37.589Z,102391.50
2023-02-18T14:51:06.089Z,102390.59
2023-02-18T14:53:45.174Z,102390.69
2023-02-18T14:56:16.433Z,102388.88
2023-02-18T14:58:48.603Z,102392.34
2023-02-18T15:01:27.722Z,102387.94
2023-02-18T15:03:56.699Z,102386.31
2023-02-18T15:06:38.524Z,102381.88
2023-02-18T15:09:22.635Z,102384.59
2023-02-18T15:11:55.107Z,102385.72
2023-02-18T15:14:27.709Z,102380.94
2023-02-18T15:16:56.172Z,102376.56
2023-02-18T15:19:28.422Z,102374.16
2023-02-18T15:21:57.743Z,102380.19
2023-02-18T15:24:33.276Z,102380.09
2023-02-18T15:27:11.506Z,102375.78
2023-02-18T15:29:39.397Z,102375.59
2023-02-18T15:32:22.908Z,102381.59
2023-02-18T15:34:53.000Z,102376.41
2023-02-18T15:37:20.567Z,102375.44
2023-02-18T15:39:48.710Z,102371.13
2023-02-18T15:42:27.564Z,102364.81
2023-02-18T15:45:22.215Z,102358.00
2023-02-18T15:47:59.767Z,102350.75
2023-02-18T15:50:45.229Z,102354.28
2023-02-18T15:53:18.275Z,102353.47
2023-02-18T15:55:53.998Z,102356.09
2023-02-18T15:58:31.313Z,102346.44
2023-02-18T16:01:07.700Z,102349.06
2023-02-18T16:03:41.369Z,102348.31
2023-02-18T16:06:30.758Z,102350.91
2023-02-18T16:09:17.130Z,102353.47
2023-02-18T16:11:51.480Z,102349.13
2023-02-18T16:14:46.598Z,102344.66
2023-02-18T16:17:28.961Z,102347.28
2023-02-18T16:20:04.398Z,102345.38
2023-02-18T16:22:42.051Z,102347.88
2023-02-18T16:25:18.736Z,102340.00
2023-02-18T16:28:03.687Z,102356.59
2023-02-18T16:30:33.177Z,102356.59
2023-02-18T16:33:01.062Z,102355.53
2023-02-18T16:35:43.953Z,102362.66
2023-02-18T16:38:22.049Z,102357.22
2023-02-18T16:40:50.127Z,102356.28
2023-02-18T16:43:23.416Z,102356.13
2023-02-18T16:45:53.840Z,102351.56
2023-02-18T16:48:28.212Z,102353.56
2023-02-18T16:50:56.136Z,102351.03
2023-02-18T16:53:23.898Z,102348.38
2023-02-18T16:55:51.965Z,102350.13
2023-02-18T16:58:19.549Z,102352.63
2023-02-18T17:00:49.166Z,102352.56
2023-02-18T17:03:17.017Z,102349.03
2023-02-18T17:05:44.702Z,102357.75
2023-02-18T17:08:23.892Z,102353.31
2023-02-18T17:10:58.766Z,102353.34
2023-02-18T17:13:29.805Z,102352.38
2023-02-18T17:15:58.776Z,102353.31
2023-02-18T17:18:26.568Z,102355.72
2023-02-18T17:20:54.802Z,102355.72
2023-02-18T17:23:23.996Z,102357.41
2023-02-18T17:25:52.798Z,102352.00
2023-02-18T17:28:20.615Z,102356.53
2023-02-18T17:30:53.350Z,102362.53
2023-02-18T17:33:20.912Z,102358.25
2023-02-18T17:35:48.427Z,102361.66
2023-02-18T17:38:18.034Z,102364.94
2023-02-18T17:40:46.063Z,102366.69
2023-02-18T17:43:15.426Z,102373.66
2023-02-18T17:45:48.704Z,102366.59
2023-02-18T17:48:16.205Z,102366.06
2023-02-18T17:50:43.616Z,102371.84
2023-02-18T17:53:13.089Z,102366.66
2023-02-18T17:55:42.806Z,102370.19
2023-02-18T17:58:11.322Z,102378.16
2023-02-18T18:00:54.939Z,102374.75
2023-02-18T18:03:22.772Z,102377.16
2023-02-18T18:05:52.297Z,102383.34
2023-02-18T18:08:19.808Z,102384.16
2023-02-18T18:10:50.586Z,102390.03
2023-02-18T18:13:30.144Z,102382.91
2023-02-18T18:15:58.253Z,102388.94
2023-02-18T18:18:27.228Z,102391.59
2023-02-18T18:20:59.583Z,102393.44
2023-02-18T18:23:29.465Z,102397.75
2023-02-18T18:25:58.533Z,102405.66
2023-02-18T18:28:27.307Z,102397.75
2023-02-18T18:30:56.886Z,102400.28
2023-02-18T18:33:27.388Z,102401.13
2023-02-18T18:35:57.328Z,102408.16
2023-02-18T18:38:27.203Z,102399.53
2023-02-18T18:40:55.739Z,102406.41
2023-02-18T18:43:32.194Z,102402.34
2023-02-18T18:46:00.783Z,102406.03
2023-02-18T18:48:28.644Z,102408.56
2023-02-18T18:50:59.774Z,102408.47
2023-02-18T18:53:30.835Z,102404.84
2023-02-18T18:56:04.986Z,102405.81
2023-02-18T18:58:32.994Z,102406.53
2023-02-18T19:01:04.071Z,102402.91
2023-02-18T19:03:33.989Z,102399.44
2023-02-18T19:06:01.525Z,102406.41
2023-02-18T19:08:29.417Z,102404.53
2023-02-18T19:10:57.572Z,102408.91
2023-02-18T19:13:30.323Z,102407.31
2023-02-18T19:16:06.308Z,102415.13
2023-02-18T19:18:34.069Z,102412.47
2023-02-18T19:21:10.594Z,102410.69
2023-02-18T19:23:38.996Z,102412.47
2023-02-18T19:26:07.697Z,102410.78
2023-02-18T19:28:35.498Z,102405.66
2023-02-18T19:31:07.661Z,102406.53
2023-02-18T19:33:35.700Z,102408.22
2023-02-18T19:36:10.923Z,102410.84
2023-02-18T19:38:39.396Z,102410.00
2023-02-18T19:41:15.591Z,102403.88
2023-02-18T19:43:44.758Z,102416.16
2023-02-18T19:46:15.430Z,102418.91
2023-02-18T19:48:43.268Z,102408.50
2023-02-18T19:51:10.915Z,102410.00
2023-02-18T19:53:38.788Z,102409.81
2023-02-18T19:56:07.576Z,102409.13
2023-02-18T19:58:36.408Z,102410.03
2023-02-18T20:01:04.548Z,102405.53
2023-02-18T20:03:32.062Z,102397.78
2023-02-18T20:05:59.597Z,102397.59
2023-02-18T20:08:27.286Z,102394.00
2023-02-18T20:10:58.988Z,102395.59
2023-02-18T20:13:26.892Z,102406.03
2023-02-18T20:15:54.384Z,102411.22
2023-02-18T20:18:21.885Z,102411.31
2023-02-18T20:20:50.920Z,102410.50
2023-02-18T20:23:18.702Z,102412.22
2023-02-18T20:25:47.771Z,102413.97
2023-02-18T20:28:15.860Z,102412.22
2023-02-18T20:30:44.380Z,102415.78
2023-02-18T20:33:11.961Z,102409.66
2023-02-18T20:35:39.446Z,102402.75
2023-02-18T20:38:07.211Z,102400.28
2023-02-18T20:40:34.643Z,102401.03
2023-02-18T20:43:02.088Z,102408.84
2023-02-18T20:45:29.430Z,102411.31
2023-02-18T20:47:56.797Z,102410.44
2023-02-18T20:50:24.261Z,102407.19
2023-02-18T20:52:52.755Z,102407.94
2023-02-18T20:55:20.241Z,102405.13
2023-02-18T20:57:47.773Z,102411.19
2023-02-18T21:00:15.884Z,102416.41
2023-02-18T21:02:43.621Z,102407.91
2023-02-18T21:05:11.238Z,102405.66
2023-02-18T21:07:38.834Z,102415.94
2023-02-18T21:10:06.786Z,102419.53
2023-02-18T21:12:34.557Z,102426.41
2023-02-18T21:15:02.246Z,102421.22
2023-02-18T21:17:29.688Z,102420.16
2023-02-18T21:19:57.140Z,102426.22
2023-02-18T21:22:24.884Z,102430.53
2023-02-18T21:24:53.577Z,102428.94
2023-02-18T21:27:21.093Z,102426.25
2023-02-18T21:29:48.520Z,102425.16
2023-02-18T21:32:16.425Z,102428.50
2023-02-18T21:34:43.898Z,102430.19
2023-02-18T21:37:11.461Z,102432.09
2023-02-18T21:39:38.955Z,102428.09
2023-02-18T21:42:06.912Z,102419.69
2023-02-18T21:44:42.401Z,102428.03
2023-02-18T21:47:11.939Z,102410.56
2023-02-18T21:49:39.646Z,102426.50
2023-02-18T21:52:10.314Z,102425.22
2023-02-18T21:54:40.343Z,102424.00
2023-02-18T21:57:12.339Z,102429.47
2023-02-18T21:59:40.795Z,102431.38
2023-02-18T22:02:16.051Z,102428.59
2023-02-18T22:04:43.601Z,102426.75
2023-02-18T22:07:11.023Z,102429.34
2023-02-18T22:09:38.675Z,102418.97
2023-02-18T22:12:06.518Z,102431.94
2023-02-18T22:14:34.107Z,102419.00
2023-02-18T22:17:01.708Z,102419.66
2023-02-18T22:19:29.189Z,102416.69
2023-02-18T22:21:56.758Z,102420.41
2023-02-18T22:24:24.995Z,102417.69
2023-02-18T22:26:52.536Z,102404.34
2023-02-18T22:29:20.590Z,102400.91
2023-02-18T22:31:49.622Z,102406.00
2023-02-18T22:34:17.296Z,102410.44
2023-02-18T22:36:45.359Z,102413.69
2023-02-18T22:39:15.444Z,102416.81
2023-02-18T22:41:43.886Z,102416.53
2023-02-18T22:44:14.613Z,102416.44
2023-02-18T22:46:42.443Z,102414.13
2023-02-18T22:49:11.378Z,102417.53
2023-02-18T22:51:41.728Z,102427.47
2023-02-18T22:54:15.390Z,102438.84
2023-02-18T22:56:43.466Z,102438.16
2023-02-18T22:59:12.576Z,102438.31
2023-02-18T23:01:42.145Z,102431.22
2023-02-18T23:04:15.010Z,102438.44
2023-02-18T23:06:45.199Z,102434.66
2023-02-18T23:09:19.551Z,102444.31
2023-02-18T23:11:52.852Z,102445.78
2023-02-18T23:14:24.240Z,102458.81
2023-02-18T23:17:14.556Z,102456.75
2023-02-18T23:19:48.768Z,102445.88
2023-02-18T23:22:25.230Z,102451.09
2023-02-18T23:24:52.707Z,102460.19
2023-02-18T23:27:20.395Z,102449.63
2023-02-18T23:29:48.383Z,102459.34
2023-02-18T23:32:16.011Z,102467.56
2023-02-18T23:34:43.857Z,102461.41
2023-02-18T23:37:11.654Z,102463.22
2023-02-18T23:39:40.089Z,102466.59
2023-02-18T23:42:08.377Z,102460.88
2023-02-18T23:44:35.833Z,102460.34
2023-02-18T23:47:03.307Z,102459.72
2023-02-18T23:49:30.766Z,102460.44
2023-02-18T23:51:58.345Z,102468.97
2023-02-18T23:54:26.044Z,102466.16
2023-02-18T23:56:53.520Z,102462.63
2023-02-18T23:59:21.088Z,102462.69
